createdAt,value
2024-01-25T00:01:38.978Z,101141.28
2024-01-25T00:04:11.753Z,101150.16
2024-01-25T00:06:43.802Z,101158.84
2024-01-25T00:09:16.767Z,101160.56
2024-01-25T00:11:49.992Z,101160.69
2024-01-25T00:14:23.399Z,101162.13
2024-01-25T00:16:57.894Z,101182.09
2024-01-25T00:19:30.316Z,101165.25
2024-01-25T00:22:02.495Z,101167.22
2024-01-25T00:24:34.898Z,101163.09
2024-01-25T00:27:07.170Z,101172.78
2024-01-25T00:29:40.794Z,101167.63
2024-01-25T00:32:15.452Z,101181.47
2024-01-25T00:34:48.490Z,101183.56
2024-01-25T00:37:21.169Z,101177.50
2024-01-25T00:39:54.650Z,101197.53
2024-01-25T00:42:27.739Z,101209.09
2024-01-25T00:45:00.704Z,101225.50
2024-01-25T00:47:36.084Z,101216.09
2024-01-25T00:50:12.474Z,101200.94
2024-01-25T00:52:45.181Z,101214.69
2024-01-25T00:55:19.133Z,101215.88
2024-01-25T00:57:56.222Z,101210.97
2024-01-25T01:00:29.872Z,101227.16
2024-01-25T01:03:09.237Z,101218.63
2024-01-25T01:05:42.308Z,101227.53
2024-01-25T01:08:16.222Z,101215.56
2024-01-25T01:10:48.480Z,101217.41
2024-01-25T01:13:20.525Z,101230.63
2024-01-25T01:15:52.883Z,101234.19
2024-01-25T01:18:27.980Z,101213.75
2024-01-25T01:21:02.764Z,101224.81
2024-01-25T01:23:34.663Z,101237.84
2024-01-25T01:26:08.732Z,101232.03
2024-01-25T01:28:40.627Z,101228.34
2024-01-25T01:31:12.929Z,101228.13
2024-01-25T01:33:47.299Z,101215.41
2024-01-25T01:36:19.233Z,101199.47
2024-01-25T01:38:50.829Z,101235.75
2024-01-25T01:41:22.698Z,101224.16
2024-01-25T01:43:57.104Z,101235.25
2024-01-25T01:46:36.275Z,101236.63
2024-01-25T01:49:12.757Z,101219.47
2024-01-25T01:51:46.175Z,101222.53
2024-01-25T01:54:18.097Z,101236.81
2024-01-25T01:56:50.382Z,101226.94
2024-01-25T01:59:23.096Z,101228.41
2024-01-25T02:01:52.509Z,101249.31
2024-01-25T02:04:26.882Z,101233.81
2024-01-25T02:06:59.643Z,101250.56
2024-01-25T02:09:31.244Z,101248.81
2024-01-25T02:12:08.370Z,101252.88
2024-01-25T02:14:39.898Z,101239.63
2024-01-25T02:17:12.798Z,101255.28
2024-01-25T02:19:47.526Z,101265.16
2024-01-25T02:22:23.471Z,101274.84
2024-01-25T02:24:58.367Z,101258.66
2024-01-25T02:27:30.374Z,101253.22
2024-01-25T02:30:01.933Z,101260.50
2024-01-25T02:32:33.898Z,101243.81
2024-01-25T02:35:05.626Z,101255.38
2024-01-25T02:37:40.257Z,101264.25
2024-01-25T02:40:13.381Z,101251.47
2024-01-25T02:42:45.449Z,101257.84
2024-01-25T02:45:20.192Z,101254.47
2024-01-25T02:47:53.464Z,101249.25
2024-01-25T02:50:25.423Z,101249.19
2024-01-25T02:53:00.163Z,101263.56
2024-01-25T02:55:31.703Z,101253.09
2024-01-25T02:58:03.756Z,101248.75
2024-01-25T03:00:36.619Z,101261.53
2024-01-25T03:03:11.935Z,101274.69
2024-01-25T03:05:43.733Z,101274.16
2024-01-25T03:08:18.478Z,101266.88
2024-01-25T03:10:51.493Z,101261.56
2024-01-25T03:13:23.605Z,101262.16
2024-01-25T03:15:55.198Z,101261.09
2024-01-25T03:21:14.974Z,101272.19
2024-01-25T03:23:52.615Z,101271.06
2024-01-25T03:26:24.173Z,101292.59
2024-01-25T03:28:56.432Z,101294.13
2024-01-25T03:31:28.369Z,101279.09
2024-01-25T03:34:00.705Z,101272.63
2024-01-25T03:36:33.018Z,101284.28
2024-01-25T03:39:08.576Z,101275.19
2024-01-25T03:41:40.393Z,101292.25
2024-01-25T03:44:12.612Z,101256.44
2024-01-25T03:46:51.798Z,101292.06
2024-01-25T03:49:24.810Z,101280.59
2024-01-25T03:51:56.810Z,101277.38
2024-01-25T03:54:31.898Z,101269.06
2024-01-25T03:57:03.975Z,101275.97
2024-01-25T03:59:36.236Z,101262.34
2024-01-25T04:02:08.736Z,101284.56
2024-01-25T04:04:41.183Z,101283.72
2024-01-25T04:07:13.232Z,101276.78
2024-01-25T04:09:49.084Z,101279.66
2024-01-25T04:12:21.114Z,101295.56
2024-01-25T04:14:53.352Z,101290.66
2024-01-25T04:17:26.092Z,101305.88
2024-01-25T04:20:07.290Z,101309.22
2024-01-25T04:22:39.810Z,101312.50
2024-01-25T04:25:15.627Z,101325.47
2024-01-25T04:27:47.944Z,101328.19
2024-01-25T04:30:20.313Z,101334.34
2024-01-25T04:32:52.263Z,101323.91
2024-01-25T04:35:24.553Z,101315.56
2024-01-25T04:37:56.415Z,101321.13
2024-01-25T04:40:31.359Z,101346.06
2024-01-25T04:43:03.532Z,101343.25
2024-01-25T04:45:35.898Z,101330.03
2024-01-25T04:48:10.252Z,101336.63
2024-01-25T04:50:46.481Z,101342.38
2024-01-25T04:53:19.319Z,101345.03
2024-01-25T04:55:58.338Z,101351.59
2024-01-25T04:58:30.305Z,101360.97
2024-01-25T05:01:02.862Z,101368.03
2024-01-25T05:03:35.069Z,101372.25
2024-01-25T05:06:07.993Z,101359.34
2024-01-25T05:08:40.116Z,101374.81
2024-01-25T05:11:15.304Z,101373.50
2024-01-25T05:13:47.257Z,101366.13
2024-01-25T05:16:19.575Z,101372.59
2024-01-25T05:21:41.946Z,101365.47
2024-01-25T05:24:14.120Z,101369.78
2024-01-25T05:26:49.235Z,101391.09
2024-01-25T05:29:21.233Z,101397.00
2024-01-25T05:31:53.797Z,101405.50
2024-01-25T05:34:26.365Z,101413.53
2024-01-25T05:36:58.867Z,101412.38
2024-01-25T05:39:33.450Z,101420.16
2024-01-25T05:42:10.184Z,101429.69
2024-01-25T05:44:46.636Z,101434.16
2024-01-25T05:47:29.678Z,101437.63
2024-01-25T05:50:06.800Z,101452.91
2024-01-25T05:52:39.531Z,101444.13
2024-01-25T05:55:12.516Z,101447.75
2024-01-25T05:57:48.218Z,101455.78
2024-01-25T06:00:21.993Z,101446.63
2024-01-25T06:02:54.571Z,101447.44
2024-01-25T06:05:27.058Z,101444.41
2024-01-25T06:08:02.214Z,101450.38
2024-01-25T06:10:34.680Z,101450.63
2024-01-25T06:13:09.809Z,101459.34
2024-01-25T06:15:42.730Z,101466.16
2024-01-25T06:18:22.171Z,101473.06
2024-01-25T06:20:56.441Z,101474.47
2024-01-25T06:23:28.782Z,101491.53
2024-01-25T06:26:00.897Z,101485.72
2024-01-25T06:28:36.273Z,101468.09
2024-01-25T06:31:09.513Z,101486.44
2024-01-25T06:33:42.020Z,101493.53
2024-01-25T06:36:19.506Z,101492.78
2024-01-25T06:38:52.195Z,101498.63
2024-01-25T06:41:24.517Z,101491.06
2024-01-25T06:43:59.551Z,101496.94
2024-01-25T06:46:31.718Z,101504.31
2024-01-25T06:49:04.887Z,101499.41
2024-01-25T06:51:36.975Z,101513.25
2024-01-25T06:54:09.396Z,101517.31
2024-01-25T06:56:44.106Z,101515.53
2024-01-25T06:59:19.018Z,101517.06
2024-01-25T07:01:51.662Z,101540.56
2024-01-25T07:04:27.103Z,101543.88
2024-01-25T07:07:00.410Z,101540.41
2024-01-25T07:09:32.940Z,101551.63
2024-01-25T07:12:07.371Z,101528.38
2024-01-25T07:14:42.353Z,101550.13
2024-01-25T07:17:15.817Z,101558.81
2024-01-25T07:19:49.749Z,101556.44
2024-01-25T07:22:24.141Z,101579.75
2024-01-25T07:24:56.485Z,101578.81
2024-01-25T07:27:28.216Z,101586.88
2024-01-25T07:30:05.247Z,101589.25
2024-01-25T07:32:37.379Z,101574.63
2024-01-25T07:35:11.347Z,101582.38
2024-01-25T07:37:44.021Z,101585.81
2024-01-25T07:40:17.060Z,101584.94
2024-01-25T07:42:48.712Z,101592.94
2024-01-25T07:45:24.293Z,101587.06
2024-01-25T07:48:04.609Z,101590.53
2024-01-25T07:50:45.870Z,101589.03
2024-01-25T07:53:18.289Z,101589.88
2024-01-25T07:55:54.802Z,101599.75
2024-01-25T07:58:26.921Z,101614.50
2024-01-25T08:01:02.131Z,101616.34
2024-01-25T08:03:34.367Z,101623.94
2024-01-25T08:06:08.105Z,101625.63
2024-01-25T08:08:40.301Z,101639.50
2024-01-25T08:11:12.784Z,101626.13
2024-01-25T08:13:47.700Z,101631.00
2024-01-25T08:16:24.889Z,101630.00
2024-01-25T08:19:04.408Z,101632.09
2024-01-25T08:21:38.843Z,101635.94
2024-01-25T08:24:10.936Z,101629.75
2024-01-25T08:26:43.295Z,101646.94
2024-01-25T08:29:15.775Z,101657.97
2024-01-25T08:31:51.980Z,101670.66
2024-01-25T08:34:24.192Z,101651.66
2024-01-25T08:36:56.698Z,101676.09
2024-01-25T08:39:29.383Z,101687.59
2024-01-25T08:42:03.388Z,101683.63
2024-01-25T08:44:35.819Z,101696.28
2024-01-25T08:47:13.320Z,101702.28
2024-01-25T08:49:45.836Z,101698.47
2024-01-25T08:52:20.591Z,101697.66
2024-01-25T08:54:52.891Z,101696.28
2024-01-25T08:57:27.895Z,101684.72
2024-01-25T08:59:59.996Z,101709.63
2024-01-25T09:02:35.249Z,101699.06
2024-01-25T09:05:08.920Z,101702.97
2024-01-25T09:07:43.513Z,101730.63
2024-01-25T09:10:20.277Z,101719.09
2024-01-25T09:12:55.709Z,101716.75
2024-01-25T09:15:29.341Z,101740.69
2024-01-25T09:18:08.515Z,101741.13
2024-01-25T09:20:55.638Z,101749.16
2024-01-25T09:23:28.460Z,101750.56
2024-01-25T09:26:00.777Z,101753.09
2024-01-25T09:28:34.272Z,101743.72
2024-01-25T09:31:07.804Z,101759.44
2024-01-25T09:33:43.957Z,101749.16
2024-01-25T09:36:16.994Z,101747.38
2024-01-25T09:38:52.754Z,101753.06
2024-01-25T09:41:25.360Z,101755.63
2024-01-25T09:43:58.549Z,101768.19
2024-01-25T09:46:34.024Z,101771.88
2024-01-25T09:49:39.734Z,101779.50
2024-01-25T09:52:17.376Z,101762.59
2024-01-25T09:54:50.718Z,101791.22
2024-01-25T09:57:28.753Z,101783.16
2024-01-25T10:00:01.363Z,101807.59
2024-01-25T10:02:36.663Z,101800.13
2024-01-25T10:05:12.903Z,101797.72
2024-01-25T10:07:47.197Z,101779.34
2024-01-25T10:10:22.699Z,101797.03
2024-01-25T10:12:59.932Z,101810.78
2024-01-25T10:15:33.353Z,101805.31
2024-01-25T10:18:28.941Z,101803.38
2024-01-25T10:21:08.316Z,101815.41
2024-01-25T10:23:41.949Z,101815.50
2024-01-25T10:26:14.773Z,101806.28
2024-01-25T10:28:47.776Z,101812.06
2024-01-25T10:31:21.033Z,101807.97
2024-01-25T10:33:56.137Z,101813.22
2024-01-25T10:36:32.608Z,101813.34
2024-01-25T10:39:09.533Z,101804.66
2024-01-25T10:41:43.767Z,101809.75
2024-01-25T10:44:16.567Z,101827.44
2024-01-25T10:49:52.488Z,101828.81
2024-01-25T10:52:28.794Z,101825.16
2024-01-25T10:55:02.316Z,101840.09
2024-01-25T10:57:40.536Z,101822.22
2024-01-25T11:00:16.207Z,101833.13
2024-01-25T11:02:51.378Z,101823.06
2024-01-25T11:05:24.316Z,101847.50
2024-01-25T11:07:59.860Z,101842.16
2024-01-25T11:10:33.129Z,101836.56
2024-01-25T11:13:07.021Z,101835.69
2024-01-25T11:15:42.634Z,101827.63
2024-01-25T11:18:30.980Z,101829.72
2024-01-25T11:21:10.551Z,101829.28
2024-01-25T11:23:48.073Z,101837.66
2024-01-25T11:26:20.801Z,101836.50
2024-01-25T11:28:53.283Z,101838.19
2024-01-25T11:31:27.004Z,101831.41
2024-01-25T11:34:04.927Z,101835.00
2024-01-25T11:36:37.665Z,101837.31
2024-01-25T11:39:13.613Z,101834.56
2024-01-25T11:41:50.395Z,101838.16
2024-01-25T11:44:28.832Z,101842.69
2024-01-25T11:47:02.730Z,101845.88
2024-01-25T11:49:40.389Z,101848.28
2024-01-25T11:52:15.284Z,101852.41
2024-01-25T11:54:50.262Z,101853.78
2024-01-25T11:57:26.326Z,101855.13
2024-01-25T12:00:01.050Z,101860.19
2024-01-25T12:02:34.641Z,101866.06
2024-01-25T12:05:08.332Z,101860.59
2024-01-25T12:07:41.718Z,101858.09
2024-01-25T12:10:21.132Z,101863.00
2024-01-25T12:12:54.329Z,101871.34
2024-01-25T12:15:27.547Z,101859.56
2024-01-25T12:18:20.053Z,101870.34
2024-01-25T12:20:53.231Z,101861.66
2024-01-25T12:23:26.146Z,101862.44
2024-01-25T12:26:04.256Z,101863.16
2024-01-25T12:28:37.520Z,101862.22
2024-01-25T12:31:11.205Z,101862.84
2024-01-25T12:33:47.284Z,101873.59
2024-01-25T12:36:19.773Z,101876.69
2024-01-25T12:38:52.875Z,101869.75
2024-01-25T12:41:27.921Z,101872.69
2024-01-25T12:44:00.757Z,101872.41
2024-01-25T12:46:43.064Z,101863.09
2024-01-25T12:49:48.025Z,101862.31
2024-01-25T12:52:23.468Z,101857.22
2024-01-25T12:54:56.726Z,101861.00
2024-01-25T12:57:31.931Z,101864.09
2024-01-25T13:02:51.318Z,101865.84
2024-01-25T13:05:23.836Z,101866.75
2024-01-25T13:07:59.581Z,101859.88
2024-01-25T13:10:31.784Z,101862.91
2024-01-25T13:13:09.438Z,101862.41
2024-01-25T13:15:44.806Z,101854.56
2024-01-25T13:18:23.404Z,101848.44
2024-01-25T13:20:57.121Z,101848.16
2024-01-25T13:23:29.488Z,101849.22
2024-01-25T13:26:01.776Z,101834.56
2024-01-25T13:28:36.992Z,101840.44
2024-01-25T13:31:09.301Z,101832.91
2024-01-25T13:33:43.409Z,101832.53
2024-01-25T13:36:16.749Z,101835.09
2024-01-25T13:38:49.191Z,101829.09
2024-01-25T13:41:23.955Z,101824.88
2024-01-25T13:43:59.125Z,101827.47
2024-01-25T13:46:32.051Z,101832.19
2024-01-25T13:49:14.033Z,101837.53
2024-01-25T13:51:49.368Z,101830.75
2024-01-25T13:54:21.894Z,101848.97
2024-01-25T13:56:56.244Z,101861.59
2024-01-25T13:59:31.444Z,101852.78
2024-01-25T14:02:03.452Z,101873.50
2024-01-25T14:04:35.934Z,101875.22
2024-01-25T14:07:08.428Z,101873.84
2024-01-25T14:09:42.578Z,101875.78
2024-01-25T14:12:14.773Z,101876.66
2024-01-25T14:14:50.327Z,101873.63
2024-01-25T14:17:24.024Z,101879.69
2024-01-25T14:20:04.658Z,101890.34
2024-01-25T14:22:37.690Z,101880.13
2024-01-25T14:25:11.096Z,101891.22
2024-01-25T14:27:43.353Z,101891.22
2024-01-25T14:30:19.415Z,101901.59
2024-01-25T14:32:54.372Z,101898.06
2024-01-25T14:35:30.147Z,101895.13
2024-01-25T14:38:02.332Z,101891.38
2024-01-25T14:40:49.197Z,101916.72
2024-01-25T14:43:26.856Z,101901.59
2024-01-25T14:46:03.590Z,101895.50
2024-01-25T14:48:36.651Z,101907.81
2024-01-25T14:51:11.203Z,101914.03
2024-01-25T14:53:43.250Z,101897.31
2024-01-25T14:56:16.421Z,101914.00
2024-01-25T14:58:48.816Z,101917.19
2024-01-25T15:01:29.691Z,101917.31
2024-01-25T15:04:02.291Z,101921.50
2024-01-25T15:06:35.209Z,101921.78
2024-01-25T15:09:08.777Z,101914.50
2024-01-25T15:11:43.100Z,101918.16
2024-01-25T15:14:15.384Z,101923.50
2024-01-25T15:16:57.835Z,101917.31
2024-01-25T15:19:32.171Z,101918.53
2024-01-25T15:22:05.278Z,101918.78
2024-01-25T15:24:37.412Z,101929.28
2024-01-25T15:27:10.986Z,101935.13
2024-01-25T15:29:45.353Z,101948.13
2024-01-25T15:32:20.287Z,101951.47
2024-01-25T15:34:52.390Z,101950.03
2024-01-25T15:37:25.077Z,101958.38
2024-01-25T15:39:57.088Z,101955.72
2024-01-25T15:42:32.584Z,101958.84
2024-01-25T15:45:04.814Z,101970.09
2024-01-25T15:47:43.871Z,101969.31
2024-01-25T15:50:16.544Z,101979.72
2024-01-25T15:52:49.352Z,101981.13
2024-01-25T15:55:21.932Z,101981.84
2024-01-25T15:57:54.362Z,101990.06
2024-01-25T16:00:26.436Z,101991.72
2024-01-25T16:03:01.626Z,101994.44
2024-01-25T16:05:34.324Z,102004.69
2024-01-25T16:08:07.010Z,102010.13
2024-01-25T16:10:39.008Z,102007.88
2024-01-25T16:13:11.495Z,102012.25
2024-01-25T16:15:44.167Z,102011.13
2024-01-25T16:18:22.624Z,102016.28
2024-01-25T16:20:55.485Z,102016.59
2024-01-25T16:23:27.968Z,102018.53
2024-01-25T16:26:00.050Z,102024.06
2024-01-25T16:28:35.556Z,102024.91
2024-01-25T16:31:07.748Z,102028.16
2024-01-25T16:33:46.060Z,102025.13
2024-01-25T16:36:18.910Z,102026.88
2024-01-25T16:38:51.384Z,102024.63
2024-01-25T16:41:23.365Z,102030.78
2024-01-25T16:43:55.769Z,102026.31
2024-01-25T16:46:28.783Z,102030.06
2024-01-25T16:49:14.700Z,102026.06
2024-01-25T16:51:48.812Z,102031.34
2024-01-25T16:54:21.317Z,102032.66
2024-01-25T16:56:53.346Z,102036.75
2024-01-25T16:59:25.808Z,102034.06
2024-01-25T17:01:57.867Z,102032.34
2024-01-25T17:04:33.128Z,102042.59
2024-01-25T17:07:06.382Z,102042.03
2024-01-25T17:09:39.147Z,102041.13
2024-01-25T17:12:15.605Z,102049.34
2024-01-25T17:14:48.530Z,102052.09
2024-01-25T17:17:31.888Z,102064.00
2024-01-25T17:20:23.490Z,102065.22
2024-01-25T17:23:02.289Z,102072.19
2024-01-25T17:25:35.014Z,102069.06
2024-01-25T17:28:09.167Z,102071.56
2024-01-25T17:30:41.642Z,102064.03
2024-01-25T17:33:15.742Z,102066.38
2024-01-25T17:35:58.768Z,102069.72
2024-01-25T17:38:32.291Z,102063.31
2024-01-25T17:41:04.576Z,102059.53
2024-01-25T17:43:38.130Z,102068.56
2024-01-25T17:46:21.971Z,102078.28
2024-01-25T17:52:13.579Z,102087.91
2024-01-25T17:54:46.474Z,102088.66
2024-01-25T17:57:19.294Z,102089.88
2024-01-25T17:59:51.816Z,102099.31
2024-01-25T18:02:24.651Z,102091.84
2024-01-25T18:04:57.045Z,102088.97
2024-01-25T18:07:32.659Z,102100.50
2024-01-25T18:10:04.720Z,102097.94
2024-01-25T18:12:39.129Z,102100.50
2024-01-25T18:15:22.705Z,102101.13
2024-01-25T18:17:56.450Z,102101.25
2024-01-25T18:20:29.902Z,102102.09
2024-01-25T18:23:05.118Z,102098.25
2024-01-25T18:25:37.174Z,102106.16
2024-01-25T18:28:09.922Z,102106.56
2024-01-25T18:30:41.986Z,102105.88
2024-01-25T18:33:16.017Z,102113.66
2024-01-25T18:35:48.297Z,102104.25
2024-01-25T18:38:25.896Z,102110.84
2024-01-25T18:40:57.931Z,102103.47
2024-01-25T18:43:40.913Z,102101.66
2024-01-25T18:46:17.057Z,102106.72
2024-01-25T18:49:04.845Z,102107.31
2024-01-25T18:51:38.323Z,102107.19
2024-01-25T18:54:14.803Z,102110.94
2024-01-25T18:56:48.534Z,102114.13
2024-01-25T18:59:21.273Z,102104.34
2024-01-25T19:01:57.583Z,102103.84
2024-01-25T19:04:30.323Z,102100.50
2024-01-25T19:07:03.454Z,102108.66
2024-01-25T19:09:43.732Z,102111.22
2024-01-25T19:12:21.920Z,102109.06
2024-01-25T19:14:55.040Z,102106.44
2024-01-25T19:17:43.848Z,102112.06
2024-01-25T19:20:16.947Z,102109.22
2024-01-25T19:22:49.784Z,102115.28
2024-01-25T19:25:24.496Z,102117.50
2024-01-25T19:27:56.552Z,102113.13
2024-01-25T19:30:31.293Z,102107.03
2024-01-25T19:33:04.380Z,102115.38
2024-01-25T19:35:37.672Z,102113.63
2024-01-25T19:38:11.240Z,102115.25
2024-01-25T19:40:47.163Z,102117.28
2024-01-25T19:43:19.196Z,102121.47
2024-01-25T19:46:02.163Z,102121.00
2024-01-25T19:48:36.629Z,102131.06
2024-01-25T19:51:09.401Z,102130.84
2024-01-25T19:53:42.115Z,102139.34
2024-01-25T19:56:18.621Z,102138.31
2024-01-25T19:58:51.728Z,102137.41
2024-01-25T20:01:25.225Z,102127.59
2024-01-25T20:04:00.320Z,102131.69
2024-01-25T20:06:33.306Z,102122.97
2024-01-25T20:09:10.696Z,102128.41
2024-01-25T20:11:48.916Z,102134.59
2024-01-25T20:14:23.030Z,102124.22
2024-01-25T20:16:57.041Z,102115.91
2024-01-25T20:19:46.299Z,102125.22
2024-01-25T20:22:26.344Z,102110.56
2024-01-25T20:24:58.857Z,102114.53
2024-01-25T20:27:33.752Z,102114.59
2024-01-25T20:30:07.136Z,102111.94
2024-01-25T20:32:39.175Z,102114.75
2024-01-25T20:35:12.513Z,102121.72
2024-01-25T20:37:44.541Z,102115.13
2024-01-25T20:40:16.640Z,102120.50
2024-01-25T20:42:50.887Z,102113.44
2024-01-25T20:45:31.565Z,102114.97
2024-01-25T20:54:55.327Z,102110.94
2024-01-25T20:57:29.546Z,102109.72
2024-01-25T21:00:05.046Z,102104.97
2024-01-25T21:02:38.102Z,102109.78
2024-01-25T21:05:11.216Z,102103.28
2024-01-25T21:07:44.103Z,102112.28
2024-01-25T21:10:18.272Z,102104.06
2024-01-25T21:12:50.941Z,102106.84
2024-01-25T21:15:26.320Z,102110.09
2024-01-25T21:17:58.471Z,102118.56
2024-01-25T21:20:30.247Z,102116.09
2024-01-25T21:23:03.340Z,102110.91
2024-01-25T21:25:37.990Z,102111.97
2024-01-25T21:28:12.486Z,102123.94
2024-01-25T21:30:48.610Z,102118.03
2024-01-25T21:33:20.835Z,102114.53
2024-01-25T21:35:52.898Z,102109.78
2024-01-25T21:38:25.098Z,102114.66
2024-01-25T21:40:56.872Z,102112.69
2024-01-25T21:43:28.987Z,102107.34
2024-01-25T21:46:03.961Z,102114.25
2024-01-25T21:48:36.519Z,102111.22
2024-01-25T21:51:08.776Z,102112.84
2024-01-25T21:53:42.033Z,102114.53
2024-01-25T21:56:13.947Z,102107.75
2024-01-25T21:58:46.174Z,102117.69
2024-01-25T22:01:20.762Z,102109.34
2024-01-25T22:03:54.322Z,102106.41
2024-01-25T22:06:26.197Z,102101.75
2024-01-25T22:08:58.277Z,102112.75
2024-01-25T22:11:30.057Z,102104.13
2024-01-25T22:14:03.875Z,102105.47
2024-01-25T22:16:38.177Z,102097.41
2024-01-25T22:19:10.258Z,102102.09
2024-01-25T22:21:42.162Z,102100.13
2024-01-25T22:24:15.911Z,102107.25
2024-01-25T22:26:47.933Z,102102.78
2024-01-25T22:29:19.923Z,102094.41
2024-01-25T22:31:54.175Z,102102.59
2024-01-25T22:34:26.986Z,102106.13
2024-01-25T22:36:59.981Z,102117.16
2024-01-25T22:39:33.075Z,102116.38
2024-01-25T22:42:11.128Z,102112.97
2024-01-25T22:44:45.110Z,102116.09
2024-01-25T22:53:53.664Z,102126.78
2024-01-25T22:56:26.286Z,102123.63
2024-01-25T22:58:58.639Z,102116.97
2024-01-25T23:01:30.764Z,102120.41
2024-01-25T23:04:05.741Z,102129.53
2024-01-25T23:06:38.404Z,102125.25
2024-01-25T23:09:10.959Z,102122.22
2024-01-25T23:11:43.092Z,102127.13
2024-01-25T23:14:16.259Z,102126.50
2024-01-25T23:16:48.304Z,102130.19
2024-01-25T23:19:25.057Z,102124.69
2024-01-25T23:21:57.257Z,102125.53
2024-01-25T23:24:31.958Z,102129.84
2024-01-25T23:27:18.484Z,102136.03
2024-01-25T23:29:50.882Z,102129.28
2024-01-25T23:32:24.181Z,102128.09
2024-01-25T23:34:59.327Z,102117.19
2024-01-25T23:37:31.402Z,102128.09
2024-01-25T23:40:03.927Z,102129.91
2024-01-25T23:42:36.507Z,102124.09
2024-01-25T23:45:10.086Z,102128.13
2024-01-25T23:48:02.185Z,102132.09
2024-01-25T23:50:37.219Z,102131.19
2024-01-25T23:53:11.481Z,102138.47
2024-01-25T23:55:48.900Z,102137.53
2024-01-25T23:58:20.620Z,102145.06
